Terminal Aerodrome Forecast
Issued by NWS

Home | Current Version | Previous Version | Text Only | Print | Product List | Glossary On
Versions: 1 2 3 4 5 6 7 8 9 10 11 12 13
101
FTUS45 KABQ 311750
TAFAEG
TAF
KAEG 311750Z 3118/0118 15011KT P6SM SCT080 SCT140
     FM312000 13011KT P6SM VCSH BKN090 BKN150
     FM312200 13013KT P6SM VCSH BKN080 BKN120
      TEMPO 3122/0102 VRB25G35KT -SHRA BKN080
     FM010200 15010KT P6SM SCT060 BKN100
     FM010500 04007KT P6SM FEW050 BKN100
     FM011200 13008KT P6SM SCT050 BKN100=

USA.gov is the U.S. government's official web portal to all federal, state and local government web resources and services.